Time;durP1;ratioP1;P1;durP2;ratioP2;P2;SDS_P1;SDS_P2;PMS_P1;PMS_P2;Temp;Humidity;BMP_temperature;BMP_pressure;BME280_temperature;BME280_humidity;BME280_pressure;Samples;Min_cycle;Max_cycle;Signal;HPM_P1;HPM_P2
2022/02/06 00:00:52;;;;;;;61.78;22.65;;;;;;;;;;6248341;23;20007;-73
2022/02/06 00:03:18;;;;;;;53.22;24.05;;;;;;;;;;6220590;23;20033;-73
2022/02/06 00:05:47;;;;;;;60.95;23.90;;;;;;;;;;6246922;23;20118;-73
2022/02/06 00:08:13;;;;;;;57.75;21.65;;;;;;;;;;6247794;23;19989;-73
2022/02/06 00:10:39;;;;;;;53.10;23.98;;;;;;;;;;6247201;23;19996;-73
2022/02/06 00:13:06;;;;;;;50.80;22.85;;;;;;;;;;6195828;23;20471;-73
2022/02/06 00:15:32;;;;;;;54.65;24.48;;;;;;;;;;6221143;23;20000;-73
2022/02/06 00:17:58;;;;;;;52.28;21.50;;;;;;;;;;6247910;23;19992;-73
2022/02/06 00:20:30;;;;;;;46.15;19.83;;;;;;;;;;6247288;23;19996;-73
2022/02/06 00:23:00;;;;;;;44.35;21.95;;;;;;;;;;6247786;23;19988;-73
2022/02/06 00:25:33;;;;;;;64.15;23.45;;;;;;;;;;6247673;23;19996;-73
2022/02/06 00:30:49;;;;;;;50.10;23.50;;;;;;;;;;6246083;23;19996;-73
2022/02/06 00:43:26;;;;;;;52.75;25.05;;;;;;;;;;6247703;23;19992;-73
2022/02/06 00:45:53;;;;;;;54.72;24.38;;;;;;;;;;6247548;23;19996;-73
2022/02/06 00:48:23;;;;;;;59.63;26.83;;;;;;;;;;6248167;23;19988;-73
2022/02/06 00:50:59;;;;;;;51.60;25.35;;;;;;;;;;6249493;23;20019;-73
2022/02/06 00:53:25;;;;;;;58.25;22.60;;;;;;;;;;6249384;23;19991;-73
2022/02/06 00:55:51;;;;;;;48.30;20.60;;;;;;;;;;6222080;23;20004;-73
2022/02/06 00:58:17;;;;;;;39.60;17.75;;;;;;;;;;6248783;23;19991;-73
2022/02/06 01:00:43;;;;;;;37.72;20.90;;;;;;;;;;6249347;23;20007;-73
2022/02/06 01:03:09;;;;;;;48.20;18.65;;;;;;;;;;6222146;23;20126;-73
2022/02/06 01:05:34;;;;;;;43.85;21.85;;;;;;;;;;6222466;23;20007;-73
2022/02/06 01:08:00;;;;;;;41.13;19.08;;;;;;;;;;6249244;23;20004;-73
2022/02/06 01:10:27;;;;;;;41.83;21.10;;;;;;;;;;6222470;23;19999;-73
2022/02/06 01:12:59;;;;;;;62.95;28.85;;;;;;;;;;6222591;23;20406;-74
2022/02/06 01:15:31;;;;;;;60.53;33.53;;;;;;;;;;6222501;23;20004;-74
2022/02/06 01:18:05;;;;;;;59.70;29.70;;;;;;;;;;6222405;23;20151;-73
2022/02/06 01:23:23;;;;;;;59.20;25.25;;;;;;;;;;6249219;23;20067;-73
2022/02/06 01:26:00;;;;;;;52.97;25.30;;;;;;;;;;6247639;23;20027;-73
2022/02/06 01:28:36;;;;;;;44.10;22.75;;;;;;;;;;6249175;23;20391;-73
2022/02/06 01:33:37;;;;;;;91.50;42.97;;;;;;;;;;6249070;23;20082;-73
2022/02/06 01:36:18;;;;;;;146.65;66.75;;;;;;;;;;6222366;23;20071;-73
2022/02/06 01:41:18;;;;;;;452.25;236.55;;;;;;;;;;6262952;23;20418;-73
2022/02/06 01:43:51;;;;;;;496.80;259.80;;;;;;;;;;6252623;23;19988;-73
2022/02/06 01:46:30;;;;;;;362.98;158.38;;;;;;;;;;6248400;23;20370;-73
2022/02/06 02:06:02;;;;;;;196.40;98.88;;;;;;;;;;6248060;23;19999;-73
2022/02/06 02:16:43;;;;;;;249.63;123.05;;;;;;;;;;6248793;23;19992;-73
2022/02/06 02:30:24;;;;;;;162.95;85.70;;;;;;;;;;6097333;23;20428;-73
2022/02/06 02:46:36;;;;;;;180.95;92.88;;;;;;;;;;6165894;23;20008;-73
2022/02/06 02:49:02;;;;;;;164.10;85.05;;;;;;;;;;6222189;23;19988;-73
2022/02/06 02:51:34;;;;;;;184.55;91.10;;;;;;;;;;6249235;23;20391;-73
2022/02/06 02:54:07;;;;;;;155.77;85.60;;;;;;;;;;6222769;23;19991;-73
2022/02/06 03:01:38;;;;;;;186.05;89.78;;;;;;;;;;6248326;23;19992;-73
2022/02/06 03:04:04;;;;;;;198.55;99.18;;;;;;;;;;6221218;23;19993;-73
2022/02/06 03:06:30;;;;;;;187.95;99.25;;;;;;;;;;6247395;23;20000;-73
2022/02/06 03:08:58;;;;;;;178.60;99.60;;;;;;;;;;6221436;23;20075;-73
2022/02/06 03:11:24;;;;;;;275.40;140.63;;;;;;;;;;6247897;23;20061;-73
2022/02/06 03:14:04;;;;;;;271.45;145.32;;;;;;;;;;6248188;23;20008;-73
2022/02/06 03:16:37;;;;;;;259.25;134.55;;;;;;;;;;6196447;23;20000;-73
2022/02/06 03:21:30;;;;;;;295.90;168.38;;;;;;;;;;6248063;23;19989;-74
2022/02/06 03:24:06;;;;;;;289.77;157.88;;;;;;;;;;6221510;23;20095;-73
2022/02/06 03:26:32;;;;;;;311.30;175.55;;;;;;;;;;6247943;23;20000;-74
2022/02/06 03:28:58;;;;;;;342.48;192.50;;;;;;;;;;6248037;23;20053;-74
2022/02/06 03:31:24;;;;;;;359.25;194.27;;;;;;;;;;6247997;23;19996;-73
2022/02/06 03:33:51;;;;;;;413.02;186.63;;;;;;;;;;6220694;23;20039;-73
2022/02/06 03:36:18;;;;;;;402.73;184.65;;;;;;;;;;6247232;23;20071;-73
2022/02/06 03:38:46;;;;;;;405.45;226.50;;;;;;;;;;6221141;23;19992;-73
2022/02/06 03:41:13;;;;;;;309.38;170.10;;;;;;;;;;6247282;23;20001;-73
2022/02/06 03:46:31;;;;;;;316.33;165.15;;;;;;;;;;6247937;23;20004;-73
2022/02/06 03:51:30;;;;;;;288.10;153.98;;;;;;;;;;6247298;23;20369;-73
2022/02/06 03:53:57;;;;;;;277.13;144.57;;;;;;;;;;6196234;23;20410;-73
2022/02/06 03:56:25;;;;;;;265.50;140.48;;;;;;;;;;6247899;23;20071;-73
2022/02/06 03:58:51;;;;;;;256.02;132.65;;;;;;;;;;6219159;23;20008;-79
2022/02/06 04:01:17;;;;;;;224.98;124.93;;;;;;;;;;6249977;23;19994;-80
2022/02/06 04:03:43;;;;;;;243.60;125.78;;;;;;;;;;6249543;23;20014;-80
2022/02/06 04:06:09;;;;;;;195.88;94.03;;;;;;;;;;6249582;23;20426;-79
2022/02/06 04:08:37;;;;;;;136.95;65.75;;;;;;;;;;6250367;23;19996;-79
2022/02/06 04:11:08;;;;;;;143.00;67.63;;;;;;;;;;6222706;23;20054;-79
2022/02/06 04:13:39;;;;;;;115.00;59.45;;;;;;;;;;6247948;23;19996;-79
2022/02/06 04:16:12;;;;;;;141.70;69.20;;;;;;;;;;6247761;23;20008;-80
2022/02/06 04:18:50;;;;;;;140.40;73.15;;;;;;;;;;6247669;23;19992;-79
2022/02/06 04:21:16;;;;;;;152.48;71.95;;;;;;;;;;6245389;23;20008;-74
2022/02/06 04:23:42;;;;;;;132.00;71.80;;;;;;;;;;6249062;23;19991;-73
2022/02/06 04:26:08;;;;;;;103.60;47.60;;;;;;;;;;6250006;23;20000;-73
2022/02/06 04:28:34;;;;;;;122.43;47.25;;;;;;;;;;6249132;23;20000;-73
2022/02/06 04:31:01;;;;;;;77.85;31.73;;;;;;;;;;6249743;23;20350;-73
2022/02/06 04:33:27;;;;;;;35.13;18.70;;;;;;;;;;6249662;23;20019;-74
2022/02/06 04:35:57;;;;;;;58.13;26.83;;;;;;;;;;6197673;23;19989;-74
2022/02/06 04:41:35;;;;;;;86.80;40.67;;;;;;;;;;6236416;23;20102;-74
2022/02/06 04:49:39;;;;;;;31.88;16.27;;;;;;;;;;6249561;23;19984;-74
2022/02/06 04:52:26;;;;;;;28.83;14.48;;;;;;;;;;6249629;23;19996;-73
2022/02/06 05:19:42;;;;;;;12.30;6.38;;;;;;;;;;6222846;23;19996;-74
2022/02/06 05:24:53;;;;;;;15.55;8.30;;;;;;;;;;6249168;23;19991;-74
2022/02/06 05:30:04;;;;;;;17.30;7.22;;;;;;;;;;6249627;23;20063;-74
2022/02/06 05:32:36;;;;;;;16.27;7.47;;;;;;;;;;6224012;23;20036;-74
2022/02/06 05:35:03;;;;;;;23.58;8.75;;;;;;;;;;6229096;23;20012;-74
2022/02/06 05:37:28;;;;;;;23.08;8.77;;;;;;;;;;6251407;23;20023;-73
2022/02/06 05:39:55;;;;;;;18.35;8.23;;;;;;;;;;6222079;23;20003;-74
2022/02/06 05:42:21;;;;;;;16.42;8.02;;;;;;;;;;6248935;23;19988;-74
2022/02/06 05:44:53;;;;;;;16.65;6.65;;;;;;;;;;6248507;23;19996;-74
2022/02/06 05:47:19;;;;;;;16.40;6.72;;;;;;;;;;6222063;23;20008;-74
2022/02/06 05:49:45;;;;;;;18.42;7.47;;;;;;;;;;6249051;23;19996;-74
2022/02/06 05:52:12;;;;;;;39.63;10.15;;;;;;;;;;6222382;23;20019;-75
2022/02/06 05:54:38;;;;;;;14.15;7.53;;;;;;;;;;6222148;23;20023;-74
2022/02/06 05:57:04;;;;;;;14.18;7.50;;;;;;;;;;6196962;23;20034;-75
2022/02/06 05:59:31;;;;;;;28.92;5.32;;;;;;;;;;6247887;23;20091;-74
2022/02/06 06:01:57;;;;;;;15.10;5.80;;;;;;;;;;6248820;23;20071;-75
2022/02/06 06:04:23;;;;;;;12.65;5.82;;;;;;;;;;6221995;23;20325;-75
2022/02/06 06:06:49;;;;;;;11.45;5.97;;;;;;;;;;6221319;23;20031;-75
2022/02/06 06:09:15;;;;;;;19.10;8.30;;;;;;;;;;6248769;23;19999;-74
2022/02/06 06:11:41;;;;;;;16.25;6.88;;;;;;;;;;6248231;23;20402;-74
2022/02/06 06:14:07;;;;;;;12.63;5.70;;;;;;;;;;6248894;23;19993;-74
2022/02/06 06:16:33;;;;;;;23.60;7.32;;;;;;;;;;6248823;23;20417;-75
2022/02/06 06:19:01;;;;;;;28.77;8.38;;;;;;;;;;6249066;23;20011;-75
2022/02/06 06:21:29;;;;;;;12.18;6.45;;;;;;;;;;6222049;23;20062;-74
2022/02/06 06:23:56;;;;;;;11.60;6.28;;;;;;;;;;6196794;23;20327;-75
2022/02/06 06:26:24;;;;;;;12.50;6.03;;;;;;;;;;6221401;23;20004;-75
2022/02/06 06:28:50;;;;;;;9.93;5.43;;;;;;;;;;6221824;23;20311;-75
2022/02/06 06:31:16;;;;;;;14.40;5.60;;;;;;;;;;6248626;23;19996;-75
2022/02/06 06:33:42;;;;;;;11.70;6.30;;;;;;;;;;6222555;23;20350;-75
2022/02/06 06:36:08;;;;;;;14.20;6.60;;;;;;;;;;6197204;23;19996;-74
2022/02/06 06:38:36;;;;;;;18.35;7.75;;;;;;;;;;6221885;23;20314;-74
2022/02/06 06:41:02;;;;;;;27.13;11.02;;;;;;;;;;6249496;23;20449;-75
2022/02/06 06:43:29;;;;;;;18.80;9.20;;;;;;;;;;6222959;23;19992;-74
2022/02/06 06:45:56;;;;;;;22.15;9.40;;;;;;;;;;6222166;23;20461;-75
2022/02/06 06:48:22;;;;;;;18.63;8.18;;;;;;;;;;6223847;23;20000;-74
2022/02/06 06:50:48;;;;;;;21.15;8.98;;;;;;;;;;6222840;23;20406;-75
2022/02/06 06:53:15;;;;;;;30.73;12.20;;;;;;;;;;6248978;23;19996;-74
2022/02/06 06:55:44;;;;;;;25.55;12.73;;;;;;;;;;6248643;23;19988;-75
2022/02/06 06:58:24;;;;;;;26.92;13.02;;;;;;;;;;6221948;23;19988;-75
2022/02/06 07:03:26;;;;;;;28.98;13.52;;;;;;;;;;6248319;23;20375;-75
2022/02/06 07:05:52;;;;;;;26.48;11.82;;;;;;;;;;6221657;23;20063;-75
2022/02/06 07:08:19;;;;;;;33.53;17.50;;;;;;;;;;6196463;23;20071;-74
2022/02/06 07:10:49;;;;;;;29.50;16.40;;;;;;;;;;6221616;23;20421;-75
2022/02/06 07:13:17;;;;;;;33.55;15.45;;;;;;;;;;6221269;23;20287;-75
2022/02/06 07:15:43;;;;;;;35.60;17.80;;;;;;;;;;6247637;23;20299;-75
2022/02/06 07:18:09;;;;;;;35.40;16.92;;;;;;;;;;6247500;23;19999;-74
2022/02/06 07:20:36;;;;;;;39.83;15.40;;;;;;;;;;6221227;23;20008;-75
2022/02/06 07:23:03;;;;;;;35.80;16.77;;;;;;;;;;6220931;23;20413;-74
2022/02/06 07:25:30;;;;;;;38.17;18.00;;;;;;;;;;6247412;23;19999;-75
2022/02/06 07:27:56;;;;;;;37.47;15.55;;;;;;;;;;6220994;23;20004;-75
2022/02/06 07:30:22;;;;;;;33.70;15.88;;;;;;;;;;6221431;23;20011;-75
2022/02/06 07:32:49;;;;;;;36.08;13.85;;;;;;;;;;6247877;23;20402;-75
2022/02/06 07:35:15;;;;;;;35.92;16.52;;;;;;;;;;6220225;23;20008;-74
2022/02/06 07:37:42;;;;;;;33.60;14.77;;;;;;;;;;6221238;23;19992;-75
2022/02/06 07:40:09;;;;;;;26.70;13.85;;;;;;;;;;6247524;23;19999;-74
2022/02/06 07:42:35;;;;;;;41.33;14.77;;;;;;;;;;6220877;23;20019;-74
2022/02/06 07:45:02;;;;;;;189.25;32.10;;;;;;;;;;6220798;23;20322;-74
2022/02/06 07:47:28;;;;;;;67.28;16.50;;;;;;;;;;6196193;23;20030;-75
2022/02/06 07:49:57;;;;;;;61.60;19.83;;;;;;;;;;6248198;23;20405;-75
2022/02/06 07:52:23;;;;;;;41.50;17.55;;;;;;;;;;6246771;23;20069;-75
2022/02/06 07:54:53;;;;;;;34.80;16.02;;;;;;;;;;6222180;23;20028;-75
2022/02/06 07:57:19;;;;;;;47.65;17.20;;;;;;;;;;6249523;23;19992;-74
2022/02/06 07:59:45;;;;;;;29.38;15.55;;;;;;;;;;6223867;23;20418;-74
2022/02/06 08:02:11;;;;;;;33.40;17.30;;;;;;;;;;6250937;23;19992;-74
2022/02/06 08:04:38;;;;;;;48.25;18.77;;;;;;;;;;6252384;23;20035;-75
2022/02/06 08:07:05;;;;;;;44.47;17.00;;;;;;;;;;6201803;23;20090;-74
2022/02/06 08:12:16;;;;;;;41.40;21.05;;;;;;;;;;6221684;23;20318;-74
2022/02/06 08:14:54;;;;;;;38.20;19.05;;;;;;;;;;6250360;23;20003;-75
2022/02/06 08:17:31;;;;;;;36.15;19.85;;;;;;;;;;6250037;23;19995;-74
2022/02/06 08:19:58;;;;;;;47.60;22.52;;;;;;;;;;6198240;23;19996;-75
2022/02/06 08:22:24;;;;;;;37.28;19.70;;;;;;;;;;6223244;23;20039;-74
2022/02/06 08:24:50;;;;;;;48.42;23.25;;;;;;;;;;6223272;23;20399;-75
2022/02/06 08:27:17;;;;;;;51.47;23.65;;;;;;;;;;6223002;23;20020;-74
2022/02/06 08:29:45;;;;;;;40.70;23.45;;;;;;;;;;6222516;23;20326;-75
2022/02/06 08:32:12;;;;;;;49.92;25.23;;;;;;;;;;6223124;23;20011;-75
2022/02/06 08:34:38;;;;;;;50.35;24.75;;;;;;;;;;6223350;23;19984;-75
2022/02/06 08:37:04;;;;;;;76.50;24.70;;;;;;;;;;6223116;23;20300;-75
2022/02/06 08:39:31;;;;;;;44.60;22.38;;;;;;;;;;6247580;23;19992;-74
2022/02/06 08:41:57;;;;;;;47.75;23.83;;;;;;;;;;6223211;23;19996;-74
2022/02/06 08:44:23;;;;;;;42.97;20.73;;;;;;;;;;6249780;23;20371;-75
2022/02/06 08:46:49;;;;;;;37.35;20.58;;;;;;;;;;6249941;23;20004;-74
2022/02/06 08:49:16;;;;;;;57.90;21.48;;;;;;;;;;6197732;23;20001;-74
2022/02/06 08:51:44;;;;;;;38.75;21.08;;;;;;;;;;6222854;23;20023;-74
2022/02/06 08:54:10;;;;;;;39.40;20.42;;;;;;;;;;6249711;23;19989;-75
2022/02/06 08:56:39;;;;;;;42.38;19.75;;;;;;;;;;6223129;23;20079;-74
2022/02/06 08:59:09;;;;;;;42.72;22.75;;;;;;;;;;6197820;23;20038;-75
2022/02/06 09:01:36;;;;;;;51.53;23.23;;;;;;;;;;6247834;23;20402;-75
2022/02/06 09:04:02;;;;;;;52.08;26.05;;;;;;;;;;6222711;23;19984;-74
2022/02/06 09:06:28;;;;;;;54.78;25.80;;;;;;;;;;6249406;23;20054;-75
2022/02/06 09:08:56;;;;;;;47.88;24.27;;;;;;;;;;6248535;23;19992;-75
2022/02/06 09:11:28;;;;;;;65.40;30.08;;;;;;;;;;6249818;23;20003;-74
2022/02/06 09:13:55;;;;;;;57.45;28.35;;;;;;;;;;6223427;23;20394;-75
2022/02/06 09:16:23;;;;;;;58.22;27.63;;;;;;;;;;6224092;23;19992;-75
2022/02/06 09:18:49;;;;;;;72.78;30.95;;;;;;;;;;6229452;23;20066;-75
2022/02/06 09:21:16;;;;;;;61.90;28.65;;;;;;;;;;6248708;23;19999;-74
2022/02/06 09:23:43;;;;;;;59.75;27.38;;;;;;;;;;6222932;23;19992;-75
2022/02/06 09:26:09;;;;;;;58.38;29.10;;;;;;;;;;6222437;23;19992;-75
2022/02/06 09:28:35;;;;;;;63.22;30.65;;;;;;;;;;6249419;23;19998;-75
2022/02/06 09:31:01;;;;;;;60.80;27.70;;;;;;;;;;6223089;23;19993;-75
2022/02/06 09:35:53;;;;;;;58.58;26.95;;;;;;;;;;6250939;23;20023;-81
2022/02/06 09:38:19;;;;;;;50.58;25.02;;;;;;;;;;6223909;23;20071;-81
2022/02/06 09:40:45;;;;;;;62.00;30.58;;;;;;;;;;6251132;23;20003;-81
2022/02/06 09:43:13;;;;;;;76.55;29.95;;;;;;;;;;6198873;23;19992;-81
2022/02/06 09:45:41;;;;;;;53.80;26.20;;;;;;;;;;6225022;23;20322;-81
2022/02/06 09:48:13;;;;;;;56.67;26.70;;;;;;;;;;6229751;23;20035;-81
2022/02/06 09:50:42;;;;;;;50.90;25.88;;;;;;;;;;6230382;23;19992;-81
2022/02/06 09:53:08;;;;;;;43.83;25.23;;;;;;;;;;6230862;23;19995;-81
2022/02/06 09:55:35;;;;;;;44.63;24.15;;;;;;;;;;6230547;23;19989;-82
2022/02/06 10:00:41;;;;;;;52.17;22.75;;;;;;;;;;6256425;23;19988;-81
2022/02/06 10:03:10;;;;;;;40.88;22.27;;;;;;;;;;6229706;23;19988;-81
2022/02/06 10:05:38;;;;;;;44.03;21.80;;;;;;;;;;6255220;23;20288;-81
2022/02/06 10:08:14;;;;;;;42.03;21.45;;;;;;;;;;6254525;23;20004;-82
2022/02/06 10:10:42;;;;;;;48.60;19.95;;;;;;;;;;6254853;23;20302;-82
2022/02/06 10:13:08;;;;;;;45.70;20.70;;;;;;;;;;6260596;23;19999;-82
2022/02/06 10:15:36;;;;;;;45.30;19.65;;;;;;;;;;6231632;23;20284;-82
2022/02/06 10:18:02;;;;;;;30.65;17.58;;;;;;;;;;6202348;23;19996;-82
2022/02/06 10:20:39;;;;;;;30.58;15.18;;;;;;;;;;6252860;23;20417;-82
2022/02/06 10:23:18;;;;;;;38.97;17.92;;;;;;;;;;6253484;23;19992;-81
2022/02/06 10:25:48;;;;;;;77.05;19.75;;;;;;;;;;6253265;23;19984;-82
2022/02/06 10:28:34;;;;;;;27.77;14.80;;;;;;;;;;6201193;23;20468;-82
2022/02/06 10:31:01;;;;;;;36.30;17.73;;;;;;;;;;6252302;23;19980;-82
2022/02/06 10:33:47;;;;;;;44.53;18.42;;;;;;;;;;6254164;23;20019;-82
2022/02/06 10:36:21;;;;;;;47.15;22.05;;;;;;;;;;6251360;23;19996;-82
2022/02/06 10:38:48;;;;;;;50.42;19.38;;;;;;;;;;6226168;23;20016;-82
2022/02/06 10:41:18;;;;;;;37.67;18.60;;;;;;;;;;6252840;23;20023;-81
2022/02/06 10:43:55;;;;;;;51.08;22.88;;;;;;;;;;6201567;23;20041;-82
2022/02/06 10:46:22;;;;;;;51.03;21.75;;;;;;;;;;6253271;23;20456;-82
2022/02/06 10:48:49;;;;;;;51.28;21.63;;;;;;;;;;6201517;23;20050;-81
2022/02/06 10:51:34;;;;;;;40.92;18.13;;;;;;;;;;6253999;23;19988;-82
2022/02/06 10:54:00;;;;;;;57.67;18.20;;;;;;;;;;6226435;23;20003;-82
2022/02/06 10:56:26;;;;;;;40.72;20.10;;;;;;;;;;6226096;23;20000;-82
2022/02/06 10:59:03;;;;;;;58.13;18.63;;;;;;;;;;6226871;23;20048;-81
2022/02/06 11:01:31;;;;;;;58.30;17.30;;;;;;;;;;6253426;23;20305;-82
2022/02/06 11:07:14;;;;;;;48.67;15.95;;;;;;;;;;6220669;23;20017;-81
2022/02/06 11:09:40;;;;;;;51.92;16.08;;;;;;;;;;6226113;23;19988;-81
2022/02/06 11:12:13;;;;;;;47.35;14.45;;;;;;;;;;6251445;23;20011;-82
2022/02/06 11:14:46;;;;;;;44.90;12.32;;;;;;;;;;6200811;23;20034;-82
2022/02/06 11:17:20;;;;;;;35.92;12.30;;;;;;;;;;6225616;23;20314;-82
2022/02/06 11:20:06;;;;;;;50.28;17.65;;;;;;;;;;6250655;23;19996;-82
2022/02/06 11:22:33;;;;;;;39.72;12.90;;;;;;;;;;6226165;23;19996;-81
2022/02/06 11:25:01;;;;;;;41.30;13.50;;;;;;;;;;6252439;23;20111;-81
2022/02/06 11:27:27;;;;;;;32.35;10.85;;;;;;;;;;6226487;23;20004;-81
2022/02/06 11:29:54;;;;;;;52.03;18.10;;;;;;;;;;6225718;23;20490;-81
2022/02/06 11:32:20;;;;;;;40.22;16.27;;;;;;;;;;6223392;23;20460;-81
2022/02/06 11:34:46;;;;;;;35.58;13.65;;;;;;;;;;6222965;23;20004;-80
2022/02/06 11:45:56;;;;;;;45.75;15.18;;;;;;;;;;6225911;23;19992;-80
2022/02/06 11:48:22;;;;;;;42.20;14.02;;;;;;;;;;6252104;23;20411;-82
2022/02/06 11:50:50;;;;;;;41.05;14.52;;;;;;;;;;6225551;23;20028;-81
2022/02/06 11:53:32;;;;;;;33.25;16.45;;;;;;;;;;6225852;23;20004;-82
2022/02/06 11:55:58;;;;;;;30.73;15.95;;;;;;;;;;6224983;23;20071;-82
2022/02/06 11:58:26;;;;;;;42.42;18.40;;;;;;;;;;6225166;23;19996;-82
2022/02/06 12:01:07;;;;;;;33.53;16.85;;;;;;;;;;6252069;23;20012;-82
2022/02/06 12:03:53;;;;;;;39.63;14.07;;;;;;;;;;6199802;23;19997;-81
2022/02/06 12:06:20;;;;;;;38.97;14.90;;;;;;;;;;6251797;23;19995;-82
2022/02/06 12:08:58;;;;;;;24.15;14.75;;;;;;;;;;6252302;23;20000;-81
2022/02/06 12:11:28;;;;;;;26.58;13.15;;;;;;;;;;6225146;23;20011;-81
2022/02/06 12:14:16;;;;;;;23.65;11.43;;;;;;;;;;6250563;23;19999;-82
2022/02/06 12:16:53;;;;;;;27.90;14.10;;;;;;;;;;6225117;23;20003;-82
2022/02/06 12:19:24;;;;;;;25.73;14.57;;;;;;;;;;6251982;23;19988;-81
2022/02/06 12:21:50;;;;;;;40.88;14.93;;;;;;;;;;6252378;23;19992;-81
2022/02/06 12:24:36;;;;;;;25.88;14.77;;;;;;;;;;6252741;23;20072;-81
2022/02/06 12:27:21;;;;;;;29.52;15.27;;;;;;;;;;6224844;23;20075;-81
2022/02/06 12:29:50;;;;;;;30.83;13.85;;;;;;;;;;6225559;23;20001;-81
2022/02/06 12:32:29;;;;;;;29.02;12.48;;;;;;;;;;6225313;23;20003;-81
2022/02/06 12:37:40;;;;;;;39.97;13.95;;;;;;;;;;6225194;23;20005;-82
2022/02/06 12:40:08;;;;;;;32.80;13.20;;;;;;;;;;6224011;23;20054;-81
2022/02/06 12:42:39;;;;;;;37.20;13.75;;;;;;;;;;6222384;23;20488;-82
2022/02/06 12:45:06;;;;;;;29.20;13.20;;;;;;;;;;6228856;23;20311;-82
2022/02/06 12:47:36;;;;;;;28.63;11.27;;;;;;;;;;6226358;23;20049;-81
2022/02/06 12:50:11;;;;;;;34.42;12.35;;;;;;;;;;6248497;23;20322;-81
2022/02/06 12:52:38;;;;;;;27.15;12.90;;;;;;;;;;6223083;23;19992;-81
2022/02/06 12:55:04;;;;;;;27.27;9.45;;;;;;;;;;6223176;23;19992;-81
2022/02/06 12:57:30;;;;;;;33.83;10.20;;;;;;;;;;6262557;23;19992;-82
2022/02/06 12:59:56;;;;;;;21.05;9.27;;;;;;;;;;6252040;23;20294;-81
2022/02/06 13:02:23;;;;;;;23.35;11.25;;;;;;;;;;6201169;23;20468;-82
2022/02/06 13:04:58;;;;;;;24.40;11.23;;;;;;;;;;6253247;23;19996;-81
2022/02/06 13:07:29;;;;;;;35.20;13.52;;;;;;;;;;6226261;23;20054;-81
2022/02/06 13:10:02;;;;;;;30.17;12.35;;;;;;;;;;6225928;23;20361;-81
2022/02/06 13:12:38;;;;;;;30.52;14.07;;;;;;;;;;6226194;23;20066;-81
2022/02/06 13:15:30;;;;;;;24.95;13.35;;;;;;;;;;6226772;23;19988;-81
2022/02/06 13:18:15;;;;;;;29.35;14.82;;;;;;;;;;6253312;23;19999;-81
2022/02/06 13:21:07;;;;;;;36.85;17.58;;;;;;;;;;6226814;23;20022;-82
2022/02/06 13:24:20;;;;;;;36.17;16.98;;;;;;;;;;6252827;23;19988;-81
2022/02/06 13:29:28;;;;;;;42.33;20.23;;;;;;;;;;6226522;23;20039;-82
2022/02/06 13:32:14;;;;;;;45.10;21.98;;;;;;;;;;6253498;23;20012;-82
2022/02/06 13:37:13;;;;;;;34.50;16.15;;;;;;;;;;6226385;23;20004;-82
2022/02/06 13:39:49;;;;;;;40.17;16.35;;;;;;;;;;6253289;23;19996;-81
2022/02/06 13:42:18;;;;;;;40.65;17.00;;;;;;;;;;6200108;23;20010;-81
2022/02/06 13:44:46;;;;;;;45.45;19.50;;;;;;;;;;6250063;23;19992;-81
2022/02/06 13:47:12;;;;;;;32.92;18.48;;;;;;;;;;6248421;23;20111;-81
2022/02/06 13:49:44;;;;;;;38.65;20.73;;;;;;;;;;6250619;23;20110;-81
2022/02/06 13:52:12;;;;;;;42.60;22.38;;;;;;;;;;6248676;23;19988;-81
2022/02/06 13:54:41;;;;;;;40.45;20.30;;;;;;;;;;6252451;23;20353;-81
2022/02/06 13:57:07;;;;;;;43.72;20.67;;;;;;;;;;6225301;23;20028;-82
2022/02/06 13:59:35;;;;;;;50.67;23.08;;;;;;;;;;6224954;23;20003;-82
2022/02/06 14:02:04;;;;;;;45.13;20.58;;;;;;;;;;6224335;23;19995;-82
2022/02/06 14:04:37;;;;;;;44.47;19.50;;;;;;;;;;6249114;23;19992;-82
2022/02/06 14:07:15;;;;;;;32.92;16.35;;;;;;;;;;6249141;23;20000;-82
2022/02/06 14:12:08;;;;;;;25.33;10.80;;;;;;;;;;6248117;23;20398;-83
2022/02/06 14:14:47;;;;;;;28.85;9.80;;;;;;;;;;6248964;23;20345;-83
2022/02/06 14:17:17;;;;;;;16.73;8.88;;;;;;;;;;6248653;23;19984;-83
2022/02/06 14:19:47;;;;;;;17.48;8.45;;;;;;;;;;6196927;23;19996;-83
2022/02/06 14:22:25;;;;;;;17.77;9.32;;;;;;;;;;6252020;23;19988;-85
2022/02/06 14:24:55;;;;;;;19.17;8.20;;;;;;;;;;6251826;23;20057;-84
2022/02/06 14:27:27;;;;;;;17.42;8.60;;;;;;;;;;6224938;23;20314;-85
2022/02/06 14:29:57;;;;;;;19.17;9.55;;;;;;;;;;6223780;23;19999;-84
2022/02/06 14:32:24;;;;;;;18.38;9.25;;;;;;;;;;6224595;23;19996;-84
2022/02/06 14:34:58;;;;;;;18.85;9.13;;;;;;;;;;6251943;23;20003;-84
2022/02/06 14:37:27;;;;;;;16.80;9.43;;;;;;;;;;6223792;23;20310;-84
2022/02/06 14:42:54;;;;;;;19.67;11.27;;;;;;;;;;6192995;23;19996;-85
2022/02/06 14:45:20;;;;;;;18.23;9.63;;;;;;;;;;6223345;23;19988;-84
2022/02/06 14:47:46;;;;;;;24.05;13.57;;;;;;;;;;6223948;23;20410;-84
2022/02/06 14:50:13;;;;;;;25.67;13.70;;;;;;;;;;6224240;23;20314;-85
2022/02/06 14:52:39;;;;;;;17.55;9.40;;;;;;;;;;6250948;23;20000;-85
2022/02/06 14:55:05;;;;;;;14.02;7.75;;;;;;;;;;6224597;23;19992;-85
2022/02/06 14:57:33;;;;;;;15.70;8.63;;;;;;;;;;6224287;23;19996;-84
2022/02/06 15:00:00;;;;;;;14.80;8.45;;;;;;;;;;6219516;23;20023;-73
2022/02/06 15:02:26;;;;;;;15.50;9.65;;;;;;;;;;6221643;23;19996;-73
2022/02/06 15:04:52;;;;;;;17.08;9.38;;;;;;;;;;6248581;23;20046;-74
2022/02/06 15:07:18;;;;;;;16.83;9.68;;;;;;;;;;6247767;23;20011;-73
2022/02/06 15:09:45;;;;;;;20.17;9.20;;;;;;;;;;6221827;23;20310;-73
2022/02/06 15:12:11;;;;;;;14.57;7.65;;;;;;;;;;6249038;23;20026;-73
2022/02/06 15:14:37;;;;;;;16.92;7.88;;;;;;;;;;6249107;23;20040;-73
2022/02/06 15:17:03;;;;;;;17.50;7.53;;;;;;;;;;6248431;23;20002;-73
2022/02/06 15:19:31;;;;;;;16.58;8.93;;;;;;;;;;6248492;23;19992;-73
2022/02/06 15:21:58;;;;;;;20.05;9.32;;;;;;;;;;6221677;23;20357;-73
2022/02/06 15:24:24;;;;;;;19.33;9.77;;;;;;;;;;6221601;23;19999;-73
2022/02/06 15:26:53;;;;;;;19.88;9.68;;;;;;;;;;6248362;23;20355;-72
2022/02/06 15:29:19;;;;;;;15.50;9.07;;;;;;;;;;6248776;23;19992;-72
2022/02/06 15:31:45;;;;;;;15.85;8.13;;;;;;;;;;6221155;23;20362;-72
2022/02/06 15:34:11;;;;;;;16.52;9.07;;;;;;;;;;6248288;23;19988;-71
2022/02/06 15:36:39;;;;;;;14.98;8.65;;;;;;;;;;6247735;23;20046;-72
2022/02/06 15:39:21;;;;;;;15.73;7.88;;;;;;;;;;6221306;23;19992;-72
2022/02/06 15:41:51;;;;;;;13.70;7.43;;;;;;;;;;6248244;23;20027;-71
2022/02/06 15:44:17;;;;;;;10.80;6.13;;;;;;;;;;6247557;23;20370;-72
2022/02/06 15:46:43;;;;;;;8.55;5.13;;;;;;;;;;6247848;23;20395;-72
2022/02/06 15:49:09;;;;;;;11.60;7.15;;;;;;;;;;6247468;23;20067;-72
2022/02/06 15:51:35;;;;;;;12.25;6.93;;;;;;;;;;6247431;23;20002;-72
2022/02/06 15:54:02;;;;;;;17.35;7.40;;;;;;;;;;6221325;23;19988;-72
2022/02/06 15:56:28;;;;;;;17.33;10.45;;;;;;;;;;6220975;23;20303;-71
2022/02/06 15:58:54;;;;;;;15.82;9.70;;;;;;;;;;6221667;23;20008;-71
2022/02/06 16:01:20;;;;;;;17.13;8.73;;;;;;;;;;6196504;23;20022;-71
2022/02/06 16:03:46;;;;;;;22.70;10.68;;;;;;;;;;6221877;23;20375;-71
2022/02/06 16:06:12;;;;;;;19.40;11.35;;;;;;;;;;6221717;23;20010;-71
2022/02/06 16:08:38;;;;;;;19.80;11.25;;;;;;;;;;6221764;23;19996;-71
2022/02/06 16:11:04;;;;;;;15.60;9.95;;;;;;;;;;6196519;23;19996;-71
2022/02/06 16:13:30;;;;;;;16.30;9.70;;;;;;;;;;6221479;23;19999;-71
2022/02/06 16:15:56;;;;;;;17.52;10.57;;;;;;;;;;6221251;23;20028;-71
2022/02/06 16:18:22;;;;;;;17.27;11.38;;;;;;;;;;6222508;23;20021;-70
2022/02/06 16:20:49;;;;;;;19.17;11.10;;;;;;;;;;6250148;23;19996;-70
2022/02/06 16:23:16;;;;;;;25.23;15.50;;;;;;;;;;6249882;23;20313;-70
2022/02/06 16:25:42;;;;;;;25.20;15.88;;;;;;;;;;6223865;23;20023;-70
2022/02/06 16:28:08;;;;;;;32.85;18.88;;;;;;;;;;6198113;23;20008;-70
2022/02/06 16:30:34;;;;;;;30.40;18.15;;;;;;;;;;6251634;23;19993;-70
2022/02/06 16:33:00;;;;;;;29.65;19.23;;;;;;;;;;6248497;23;20398;-71
2022/02/06 16:35:26;;;;;;;28.63;16.45;;;;;;;;;;6248411;23;20027;-70
2022/02/06 16:37:52;;;;;;;31.45;18.33;;;;;;;;;;6249924;23;19993;-71
2022/02/06 16:40:18;;;;;;;36.35;21.77;;;;;;;;;;6249158;23;19992;-71
2022/02/06 16:42:45;;;;;;;47.72;31.05;;;;;;;;;;6222973;23;20057;-71
2022/02/06 16:45:14;;;;;;;53.30;33.53;;;;;;;;;;6222778;23;20391;-71
2022/02/06 16:47:40;;;;;;;39.45;23.08;;;;;;;;;;6197931;23;20008;-71
2022/02/06 16:50:06;;;;;;;31.52;19.58;;;;;;;;;;6218069;23;20008;-71
2022/02/06 16:52:32;;;;;;;33.08;17.58;;;;;;;;;;6223050;23;20117;-71
2022/02/06 16:54:58;;;;;;;29.35;17.45;;;;;;;;;;6249847;23;19992;-71
2022/02/06 16:57:24;;;;;;;27.85;16.55;;;;;;;;;;6197579;23;20062;-71
2022/02/06 16:59:50;;;;;;;28.27;15.52;;;;;;;;;;6222621;23;20000;-72
2022/02/06 17:02:16;;;;;;;26.83;15.18;;;;;;;;;;6249206;23;20120;-71
2022/02/06 17:04:42;;;;;;;21.45;13.48;;;;;;;;;;6198166;23;20000;-71
2022/02/06 17:07:08;;;;;;;20.58;13.57;;;;;;;;;;6222153;23;20055;-71